Gazpromneft East — UBOF4 — position and weather

sailwx.info

Track history (hours):
 
Tides and Currents Weather Stations Pressure Air Temp Water Temp Dewpoint Dewpoint Depression Visibility Wind Speed Wind Dir Waves Ship Positions

Gazpromneft East

Last reported at 2017-Feb-22 12:33 UTC. Time now 2017-Feb-22 13:09 UTC.
Position N 59°47' E 028°24'.

Length 79 m; draft 4.5 m.

Type: Tanker. MMSI: 273335320.

Date/timePositionNaut miles runAvg speedWind from/ knotsBaromVisibWave heightAir tempDewpointWater temp
2017-Feb-22 12:33N 59°47' E 028°24'0 0.1
2017-Feb-22 11:33N 59°47' E 028°24'0 0.0
2017-Feb-22 10:33N 59°47' E 028°24'0 0.0
2017-Feb-22 09:33N 59°47' E 028°24'0 0.4
2017-Feb-22 08:33N 59°47' E 028°25'0 0.4
2017-Feb-22 07:33N 59°46' E 028°25'0 0.0
2017-Feb-22 06:33N 59°46' E 028°25'0 0.0
2017-Feb-22 05:33N 59°46' E 028°25'0 0.1
2017-Feb-22 04:33N 59°46' E 028°25'0 0.0
2017-Feb-22 03:33N 59°46' E 028°25'0 0.0
2017-Feb-22 02:33N 59°46' E 028°25'0 0.0
2017-Feb-22 01:33N 59°46' E 028°25'5 4.5
2017-Feb-22 00:33N 59°42' E 028°22'0 0.0
2017-Feb-21 21:06N 59°42' E 028°22'0 0.0
2017-Feb-21 20:24N 59°42' E 028°22'0 0.0
2017-Feb-21 18:33N 59°42' E 028°22'0 0.0
2017-Feb-21 16:06N 59°42' E 028°22'0 0.0
2017-Feb-21 14:30N 59°42' E 028°22'0 0.0
2017-Feb-21 13:30N 59°42' E 028°22'0 0.0
2017-Feb-21 11:33N 59°42' E 028°22'0 0.0
2017-Feb-21 10:30N 59°42' E 028°22'0 0.0
2017-Feb-21 09:33N 59°42' E 028°22'0 0.0
2017-Feb-21 08:33N 59°42' E 028°22'0 0.0
2017-Feb-21 07:24N 59°42' E 028°22'0 0.0
2017-Feb-21 06:24N 59°42' E 028°22'0 0.0
2017-Feb-21 05:09N 59°42' E 028°22'0 0.0
2017-Feb-21 04:32N 59°42' E 028°22'0 0.0
2017-Feb-21 03:32N 59°42' E 028°22'0 0.0
2017-Feb-21 02:32N 59°42' E 028°22'1 0.6
2017-Feb-21 01:34N 59°42' E 028°22'5 4.8
2017-Feb-21 00:33N 59°47' E 028°25'0 0.0
2017-Feb-20 23:33N 59°47' E 028°25'0 0.0
2017-Feb-20 22:33N 59°47' E 028°25'0 0.0
2017-Feb-20 21:33N 59°47' E 028°25'0 0.0
2017-Feb-20 20:33N 59°47' E 028°25'0 0.0
2017-Feb-20 19:33N 59°47' E 028°25'0 0.0
2017-Feb-20 18:34N 59°47' E 028°25'6 5.6
2017-Feb-20 17:33N 59°41' E 028°25'0 0.0
2017-Feb-20 16:33N 59°41' E 028°25'0 0.0
2017-Feb-20 15:33N 59°41' E 028°25'0 0.0
2017-Feb-20 14:34N 59°41' E 028°25'0 0.0
2017-Feb-20 13:34N 59°41' E 028°25'0 0.0
2017-Feb-20 12:33N 59°41' E 028°25'0 0.0
2017-Feb-20 11:33N 59°41' E 028°25'0 0.0
2017-Feb-20 10:33N 59°41' E 028°25'0 0.0
2017-Feb-20 09:33N 59°41' E 028°25'0 0.1
2017-Feb-20 08:33N 59°41' E 028°25'8 7.7
2017-Feb-20 07:33N 59°49' E 028°25'7 6.9
2017-Feb-20 06:29N 59°54' E 028°36'0 0.0
2017-Feb-20 05:29N 59°54' E 028°36'0 0.0
2017-Feb-20 04:32N 59°54' E 028°36'0 0.0
2017-Feb-20 03:32N 59°54' E 028°36'0 0.0
2017-Feb-20 02:32N 59°54' E 028°36'1 0.4
2017-Feb-20 01:06N 59°54' E 028°37'0 0.3
2017-Feb-20 00:19N 59°54' E 028°37'0 0.1
2017-Feb-19 19:25N 59°54' E 028°36'1 0.6
2017-Feb-19 18:31N 59°54' E 028°37'0 0.2
2017-Feb-19 17:25N 59°54' E 028°37'0 0.2
2017-Feb-19 16:34N 59°54' E 028°37'5 5.0
2017-Feb-19 15:34N 59°52' E 028°28'9 9.0
2017-Feb-19 14:34N 59°55' E 028°44'6 5.8
2017-Feb-19 13:33N 59°60' E 028°51'7 5.5
2017-Feb-19 12:14N 60°01' E 029°05'16 7.6
2017-Feb-19 10:05N 60°00' E 029°38'510.1
2017-Feb-19 09:34N 59°58' E 029°48'1010.0
2017-Feb-19 08:33N 59°54' E 030°06'4 3.8
2017-Feb-19 07:33N 59°53' E 030°13'0 0.0
2017-Feb-19 06:34N 59°53' E 030°13'0 0.0
2017-Feb-19 05:34N 59°53' E 030°13'0 0.0
2017-Feb-19 04:33N 59°53' E 030°13'0 0.0
2017-Feb-19 03:33N 59°53' E 030°13'0 0.0
2017-Feb-19 02:33N 59°53' E 030°13'0 0.0
2017-Feb-19 01:33N 59°53' E 030°13'0 0.0
2017-Feb-19 00:34N 59°53' E 030°13'0 0.0
2017-Feb-18 23:34N 59°53' E 030°13'0 0.1
2017-Feb-18 22:34N 59°53' E 030°13'0 0.1
2017-Feb-18 21:33N 59°53' E 030°14'0 0.0
2017-Feb-18 20:33N 59°53' E 030°14'0 0.0
2017-Feb-18 19:33N 59°53' E 030°14'0 0.0
2017-Feb-18 18:33N 59°53' E 030°14'0 0.0
2017-Feb-18 17:33N 59°53' E 030°14'0 0.0
2017-Feb-18 16:33N 59°53' E 030°14'0 0.0
2017-Feb-18 15:33N 59°53' E 030°14'0 0.0
2017-Feb-18 14:33N 59°53' E 030°14'0 0.0
2017-Feb-18 13:33N 59°53' E 030°14'0 0.0
2017-Feb-18 12:34N 59°53' E 030°14'0 0.0
2017-Feb-18 11:33N 59°53' E 030°14'0 0.0
2017-Feb-18 10:34N 59°53' E 030°14'0 0.0
2017-Feb-18 09:33N 59°53' E 030°14'0 0.0
2017-Feb-18 08:34N 59°53' E 030°14'3 3.2
2017-Feb-18 07:34N 59°54' E 030°07'3 3.0
2017-Feb-18 06:34N 59°55' E 030°02'8 7.6
2017-Feb-18 05:34N 59°56' E 029°47'1 0.2
2017-Feb-18 01:07N 59°56' E 029°46'2 0.4
2017-Feb-17 19:33N 59°58' E 029°47'7 6.9
2017-Feb-17 18:33N 59°55' E 029°60'7 6.5
2017-Feb-17 17:33N 59°53' E 030°12'1 0.7
2017-Feb-17 16:33N 59°53' E 030°14'0 0.0
2017-Feb-17 15:33N 59°53' E 030°14'0 0.0
2017-Feb-17 14:33N 59°53' E 030°14'0 0.0
2017-Feb-17 13:33N 59°53' E 030°14'0 0.0
2017-Feb-17 12:33N 59°53' E 030°14'0 0.0
2017-Feb-17 11:33N 59°53' E 030°14'0 0.0
2017-Feb-17 10:33N 59°53' E 030°14'0 0.0
2017-Feb-17 09:33N 59°53' E 030°14'0 0.0
2017-Feb-17 08:33N 59°53' E 030°14'0 0.0
2017-Feb-17 07:33N 59°53' E 030°14'5 5.5
2017-Feb-17 06:33N 59°55' E 030°03'9 8.7
2017-Feb-17 05:33N 59°58' E 029°47'16 1.7
2017-Feb-16 20:31N 60°01' E 029°17'8 8.1
2017-Feb-16 19:33N 60°02' E 029°01'8 7.5
2017-Feb-16 18:33N 60°02' E 028°46'7 6.5
2017-Feb-16 17:33N 59°58' E 028°36'10 9.9
2017-Feb-16 16:33N 59°50' E 028°26'3 3.0
2017-Feb-16 15:33N 59°47' E 028°24'0 0.0
2017-Feb-16 14:33N 59°47' E 028°24'0 0.0
2017-Feb-16 13:33N 59°47' E 028°24'0 0.0
2017-Feb-16 12:33N 59°47' E 028°24'0 0.0
2017-Feb-16 11:33N 59°47' E 028°24'0 0.0
2017-Feb-16 10:33N 59°47' E 028°24'0 0.0
2017-Feb-16 09:33N 59°47' E 028°24'0 0.0
2017-Feb-16 08:33N 59°47' E 028°24'0 0.0
2017-Feb-16 07:33N 59°47' E 028°24'0 0.0
2017-Feb-16 06:33N 59°47' E 028°24'0 0.0
2017-Feb-16 05:33N 59°47' E 028°24'0 0.0
2017-Feb-16 04:33N 59°47' E 028°24'0 0.2
2017-Feb-16 03:33N 59°46' E 028°24'5 4.8
2017-Feb-16 02:31N 59°42' E 028°20'0 0.0
2017-Feb-16 01:31N 59°42' E 028°20'0 0.0
2017-Feb-16 00:31N 59°42' E 028°20'0 0.0
2017-Feb-15 23:31N 59°42' E 028°20'0 0.0
2017-Feb-15 22:31N 59°42' E 028°20'1 1.1
2017-Feb-15 21:33N 59°42' E 028°22'4 3.9
2017-Feb-15 20:33N 59°46' E 028°25'0 0.2
2017-Feb-15 19:33N 59°46' E 028°25'0 0.0
2017-Feb-15 18:33N 59°46' E 028°25'0 0.0
2017-Feb-15 17:34N 59°46' E 028°25'0 0.0
2017-Feb-15 16:33N 59°46' E 028°25'0 0.0
2017-Feb-15 15:33N 59°46' E 028°25'0 0.0
2017-Feb-15 14:33N 59°46' E 028°25'0 0.0
2017-Feb-15 13:33N 59°46' E 028°25'0 0.0
2017-Feb-15 12:33N 59°46' E 028°25'0 0.0
2017-Feb-15 11:33N 59°46' E 028°25'4 4.3
2017-Feb-15 10:33N 59°42' E 028°25'0 0.4
2017-Feb-15 09:34N 59°42' E 028°26'0 0.0
2017-Feb-15 08:33N 59°42' E 028°26'0 0.0
2017-Feb-15 07:33N 59°42' E 028°26'0 0.0
2017-Feb-15 06:33N 59°42' E 028°26'2 2.1
2017-Feb-15 05:31N 59°42' E 028°21'0 0.0
2017-Feb-15 04:22N 59°42' E 028°21'0 0.0
2017-Feb-15 02:18N 59°42' E 028°21'0 0.0
2017-Feb-15 01:33N 59°42' E 028°21'0 0.0
2017-Feb-15 00:08N 59°42' E 028°21'0 0.0
2017-Feb-14 22:27N 59°42' E 028°21'0 0.0
2017-Feb-14 21:09N 59°42' E 028°21'0 0.0
2017-Feb-14 20:30N 59°42' E 028°21'0 0.0
2017-Feb-14 19:15N 59°42' E 028°21'0 0.0
2017-Feb-14 18:30N 59°42' E 028°21'0 0.0
2017-Feb-14 17:33N 59°42' E 028°21'0 0.0
2017-Feb-14 16:18N 59°42' E 028°21'0 0.0
2017-Feb-14 15:33N 59°42' E 028°21'0 0.0
2017-Feb-14 14:33N 59°42' E 028°21'0 0.0
2017-Feb-14 13:18N 59°42' E 028°21'0 0.0
2017-Feb-14 11:32N 59°42' E 028°21'0 0.0
2017-Feb-14 10:06N 59°42' E 028°21'0 0.0
2017-Feb-14 07:24N 59°42' E 028°21'0 0.0
2017-Feb-14 06:30N 59°42' E 028°21'0 0.0
2017-Feb-14 05:30N 59°42' E 028°21'0 0.0
2017-Feb-14 02:18N 59°42' E 028°21'0 0.0
2017-Feb-14 01:33N 59°42' E 028°21'0 0.0
2017-Feb-13 21:32N 59°42' E 028°21'0 0.0
2017-Feb-13 19:27N 59°42' E 028°21'0 0.0
2017-Feb-13 18:24N 59°42' E 028°21'0 0.0
2017-Feb-13 16:30N 59°42' E 028°21'0 0.3
2017-Feb-13 15:33N 59°42' E 028°22'0 0.0
2017-Feb-13 14:33N 59°42' E 028°22'0 0.0
2017-Feb-13 13:33N 59°42' E 028°22'0 0.0
2017-Feb-13 12:33N 59°42' E 028°22'0 0.0
2017-Feb-13 11:33N 59°42' E 028°22'0 0.0
2017-Feb-13 10:33N 59°42' E 028°22'0 0.0
2017-Feb-13 09:33N 59°42' E 028°22'0 0.0
2017-Feb-13 08:33N 59°42' E 028°22'0 0.0
2017-Feb-13 07:33N 59°42' E 028°22'0 0.0
2017-Feb-13 06:33N 59°42' E 028°22'1 1.0
2017-Feb-13 05:33N 59°43' E 028°23'3 3.4
2017-Feb-13 04:33N 59°46' E 028°24'0 0.3
2017-Feb-13 03:33N 59°46' E 028°25'0 0.0
2017-Feb-13 02:34N 59°46' E 028°25'0 0.0
2017-Feb-13 01:33N 59°46' E 028°25'0 0.0
2017-Feb-13 00:33N 59°46' E 028°25'0 0.0
2017-Feb-12 23:32N 59°46' E 028°25'0 0.0
2017-Feb-12 22:33N 59°46' E 028°25'0 0.0
2017-Feb-12 21:33N 59°46' E 028°25'0 0.0
2017-Feb-12 20:33N 59°46' E 028°25'0 0.0
2017-Feb-12 19:33N 59°46' E 028°25'0 0.3
2017-Feb-12 18:33N 59°46' E 028°25'4 3.7
2017-Feb-12 17:33N 59°43' E 028°22'0 0.0
2017-Feb-12 16:33N 59°43' E 028°22'0 0.0
2017-Feb-12 15:33N 59°43' E 028°22'0 0.0
2017-Feb-12 14:33N 59°43' E 028°22'0 0.0
2017-Feb-12 13:33N 59°43' E 028°22'0 0.1
2017-Feb-12 12:34N 59°43' E 028°22'  
Track history (hours):
 
Tides and Currents Weather Stations Pressure Air Temp Water Temp Dewpoint Dewpoint Depression Visibility Wind Speed Wind Dir Waves Ship Positions

Gazpromneft East

Last reported at 2017-Feb-22 12:33 UTC. Time now 2017-Feb-22 13:09 UTC.
Position N 59°47' E 028°24'.

Length 79 m; draft 4.5 m.

Type: Tanker. MMSI: 273335320.

Date/timePositionNaut miles runAvg speedWind from/ knotsBaromVisibWave heightAir tempDewpointWater temp
2017-Feb-22 12:33N 59°47' E 028°24'0 0.1
2017-Feb-22 11:33N 59°47' E 028°24'0 0.0
2017-Feb-22 10:33N 59°47' E 028°24'0 0.0
2017-Feb-22 09:33N 59°47' E 028°24'0 0.4
2017-Feb-22 08:33N 59°47' E 028°25'0 0.4
2017-Feb-22 07:33N 59°46' E 028°25'0 0.0
2017-Feb-22 06:33N 59°46' E 028°25'0 0.0
2017-Feb-22 05:33N 59°46' E 028°25'0 0.1
2017-Feb-22 04:33N 59°46' E 028°25'0 0.0
2017-Feb-22 03:33N 59°46' E 028°25'0 0.0
2017-Feb-22 02:33N 59°46' E 028°25'0 0.0
2017-Feb-22 01:33N 59°46' E 028°25'5 4.5
2017-Feb-22 00:33N 59°42' E 028°22'0 0.0
2017-Feb-21 21:06N 59°42' E 028°22'0 0.0
2017-Feb-21 20:24N 59°42' E 028°22'0 0.0
2017-Feb-21 18:33N 59°42' E 028°22'0 0.0
2017-Feb-21 16:06N 59°42' E 028°22'0 0.0
2017-Feb-21 14:30N 59°42' E 028°22'0 0.0
2017-Feb-21 13:30N 59°42' E 028°22'0 0.0
2017-Feb-21 11:33N 59°42' E 028°22'0 0.0
2017-Feb-21 10:30N 59°42' E 028°22'0 0.0
2017-Feb-21 09:33N 59°42' E 028°22'0 0.0
2017-Feb-21 08:33N 59°42' E 028°22'0 0.0
2017-Feb-21 07:24N 59°42' E 028°22'0 0.0
2017-Feb-21 06:24N 59°42' E 028°22'0 0.0
2017-Feb-21 05:09N 59°42' E 028°22'0 0.0
2017-Feb-21 04:32N 59°42' E 028°22'0 0.0
2017-Feb-21 03:32N 59°42' E 028°22'0 0.0
2017-Feb-21 02:32N 59°42' E 028°22'1 0.6
2017-Feb-21 01:34N 59°42' E 028°22'5 4.8
2017-Feb-21 00:33N 59°47' E 028°25'0 0.0
2017-Feb-20 23:33N 59°47' E 028°25'0 0.0
2017-Feb-20 22:33N 59°47' E 028°25'0 0.0
2017-Feb-20 21:33N 59°47' E 028°25'0 0.0
2017-Feb-20 20:33N 59°47' E 028°25'0 0.0
2017-Feb-20 19:33N 59°47' E 028°25'0 0.0
2017-Feb-20 18:34N 59°47' E 028°25'6 5.6
2017-Feb-20 17:33N 59°41' E 028°25'0 0.0
2017-Feb-20 16:33N 59°41' E 028°25'0 0.0
2017-Feb-20 15:33N 59°41' E 028°25'0 0.0
2017-Feb-20 14:34N 59°41' E 028°25'0 0.0
2017-Feb-20 13:34N 59°41' E 028°25'0 0.0
2017-Feb-20 12:33N 59°41' E 028°25'0 0.0
2017-Feb-20 11:33N 59°41' E 028°25'0 0.0
2017-Feb-20 10:33N 59°41' E 028°25'0 0.0
2017-Feb-20 09:33N 59°41' E 028°25'0 0.1
2017-Feb-20 08:33N 59°41' E 028°25'8 7.7
2017-Feb-20 07:33N 59°49' E 028°25'7 6.9
2017-Feb-20 06:29N 59°54' E 028°36'0 0.0
2017-Feb-20 05:29N 59°54' E 028°36'0 0.0
2017-Feb-20 04:32N 59°54' E 028°36'0 0.0
2017-Feb-20 03:32N 59°54' E 028°36'0 0.0
2017-Feb-20 02:32N 59°54' E 028°36'1 0.4
2017-Feb-20 01:06N 59°54' E 028°37'0 0.3
2017-Feb-20 00:19N 59°54' E 028°37'0 0.1
2017-Feb-19 19:25N 59°54' E 028°36'1 0.6
2017-Feb-19 18:31N 59°54' E 028°37'0 0.2
2017-Feb-19 17:25N 59°54' E 028°37'0 0.2
2017-Feb-19 16:34N 59°54' E 028°37'5 5.0
2017-Feb-19 15:34N 59°52' E 028°28'9 9.0
2017-Feb-19 14:34N 59°55' E 028°44'6 5.8
2017-Feb-19 13:33N 59°60' E 028°51'7 5.5
2017-Feb-19 12:14N 60°01' E 029°05'16 7.6
2017-Feb-19 10:05N 60°00' E 029°38'510.1
2017-Feb-19 09:34N 59°58' E 029°48'1010.0
2017-Feb-19 08:33N 59°54' E 030°06'4 3.8
2017-Feb-19 07:33N 59°53' E 030°13'0 0.0
2017-Feb-19 06:34N 59°53' E 030°13'0 0.0
2017-Feb-19 05:34N 59°53' E 030°13'0 0.0
2017-Feb-19 04:33N 59°53' E 030°13'0 0.0
2017-Feb-19 03:33N 59°53' E 030°13'0 0.0
2017-Feb-19 02:33N 59°53' E 030°13'0 0.0
2017-Feb-19 01:33N 59°53' E 030°13'0 0.0
2017-Feb-19 00:34N 59°53' E 030°13'0 0.0
2017-Feb-18 23:34N 59°53' E 030°13'0 0.1
2017-Feb-18 22:34N 59°53' E 030°13'0 0.1
2017-Feb-18 21:33N 59°53' E 030°14'0 0.0
2017-Feb-18 20:33N 59°53' E 030°14'0 0.0
2017-Feb-18 19:33N 59°53' E 030°14'0 0.0
2017-Feb-18 18:33N 59°53' E 030°14'0 0.0
2017-Feb-18 17:33N 59°53' E 030°14'0 0.0
2017-Feb-18 16:33N 59°53' E 030°14'0 0.0
2017-Feb-18 15:33N 59°53' E 030°14'0 0.0
2017-Feb-18 14:33N 59°53' E 030°14'0 0.0
2017-Feb-18 13:33N 59°53' E 030°14'0 0.0
2017-Feb-18 12:34N 59°53' E 030°14'0 0.0
2017-Feb-18 11:33N 59°53' E 030°14'0 0.0
2017-Feb-18 10:34N 59°53' E 030°14'0 0.0
2017-Feb-18 09:33N 59°53' E 030°14'0 0.0
2017-Feb-18 08:34N 59°53' E 030°14'3 3.2
2017-Feb-18 07:34N 59°54' E 030°07'3 3.0
2017-Feb-18 06:34N 59°55' E 030°02'8 7.6
2017-Feb-18 05:34N 59°56' E 029°47'1 0.2
2017-Feb-18 01:07N 59°56' E 029°46'2 0.4
2017-Feb-17 19:33N 59°58' E 029°47'7 6.9
2017-Feb-17 18:33N 59°55' E 029°60'7 6.5
2017-Feb-17 17:33N 59°53' E 030°12'1 0.7
2017-Feb-17 16:33N 59°53' E 030°14'0 0.0
2017-Feb-17 15:33N 59°53' E 030°14'0 0.0
2017-Feb-17 14:33N 59°53' E 030°14'0 0.0
2017-Feb-17 13:33N 59°53' E 030°14'0 0.0
2017-Feb-17 12:33N 59°53' E 030°14'0 0.0
2017-Feb-17 11:33N 59°53' E 030°14'0 0.0
2017-Feb-17 10:33N 59°53' E 030°14'0 0.0
2017-Feb-17 09:33N 59°53' E 030°14'0 0.0
2017-Feb-17 08:33N 59°53' E 030°14'0 0.0
2017-Feb-17 07:33N 59°53' E 030°14'5 5.5
2017-Feb-17 06:33N 59°55' E 030°03'9 8.7
2017-Feb-17 05:33N 59°58' E 029°47'16 1.7
2017-Feb-16 20:31N 60°01' E 029°17'8 8.1
2017-Feb-16 19:33N 60°02' E 029°01'8 7.5
2017-Feb-16 18:33N 60°02' E 028°46'7 6.5
2017-Feb-16 17:33N 59°58' E 028°36'10 9.9
2017-Feb-16 16:33N 59°50' E 028°26'3 3.0
2017-Feb-16 15:33N 59°47' E 028°24'0 0.0
2017-Feb-16 14:33N 59°47' E 028°24'0 0.0
2017-Feb-16 13:33N 59°47' E 028°24'0 0.0
2017-Feb-16 12:33N 59°47' E 028°24'0 0.0
2017-Feb-16 11:33N 59°47' E 028°24'0 0.0
2017-Feb-16 10:33N 59°47' E 028°24'0 0.0
2017-Feb-16 09:33N 59°47' E 028°24'0 0.0
2017-Feb-16 08:33N 59°47' E 028°24'0 0.0
2017-Feb-16 07:33N 59°47' E 028°24'0 0.0
2017-Feb-16 06:33N 59°47' E 028°24'0 0.0
2017-Feb-16 05:33N 59°47' E 028°24'0 0.0
2017-Feb-16 04:33N 59°47' E 028°24'0 0.2
2017-Feb-16 03:33N 59°46' E 028°24'5 4.8
2017-Feb-16 02:31N 59°42' E 028°20'0 0.0
2017-Feb-16 01:31N 59°42' E 028°20'0 0.0
2017-Feb-16 00:31N 59°42' E 028°20'0 0.0
2017-Feb-15 23:31N 59°42' E 028°20'0 0.0
2017-Feb-15 22:31N 59°42' E 028°20'1 1.1
2017-Feb-15 21:33N 59°42' E 028°22'4 3.9
2017-Feb-15 20:33N 59°46' E 028°25'0 0.2
2017-Feb-15 19:33N 59°46' E 028°25'0 0.0
2017-Feb-15 18:33N 59°46' E 028°25'0 0.0
2017-Feb-15 17:34N 59°46' E 028°25'0 0.0
2017-Feb-15 16:33N 59°46' E 028°25'0 0.0
2017-Feb-15 15:33N 59°46' E 028°25'0 0.0
2017-Feb-15 14:33N 59°46' E 028°25'0 0.0
2017-Feb-15 13:33N 59°46' E 028°25'0 0.0
2017-Feb-15 12:33N 59°46' E 028°25'0 0.0
2017-Feb-15 11:33N 59°46' E 028°25'4 4.3
2017-Feb-15 10:33N 59°42' E 028°25'0 0.4
2017-Feb-15 09:34N 59°42' E 028°26'0 0.0
2017-Feb-15 08:33N 59°42' E 028°26'0 0.0
2017-Feb-15 07:33N 59°42' E 028°26'0 0.0
2017-Feb-15 06:33N 59°42' E 028°26'2 2.1
2017-Feb-15 05:31N 59°42' E 028°21'0 0.0
2017-Feb-15 04:22N 59°42' E 028°21'0 0.0
2017-Feb-15 02:18N 59°42' E 028°21'0 0.0
2017-Feb-15 01:33N 59°42' E 028°21'0 0.0
2017-Feb-15 00:08N 59°42' E 028°21'0 0.0
2017-Feb-14 22:27N 59°42' E 028°21'0 0.0
2017-Feb-14 21:09N 59°42' E 028°21'0 0.0
2017-Feb-14 20:30N 59°42' E 028°21'0 0.0
2017-Feb-14 19:15N 59°42' E 028°21'0 0.0
2017-Feb-14 18:30N 59°42' E 028°21'0 0.0
2017-Feb-14 17:33N 59°42' E 028°21'0 0.0
2017-Feb-14 16:18N 59°42' E 028°21'0 0.0
2017-Feb-14 15:33N 59°42' E 028°21'0 0.0
2017-Feb-14 14:33N 59°42' E 028°21'0 0.0
2017-Feb-14 13:18N 59°42' E 028°21'0 0.0
2017-Feb-14 11:32N 59°42' E 028°21'0 0.0
2017-Feb-14 10:06N 59°42' E 028°21'0 0.0
2017-Feb-14 07:24N 59°42' E 028°21'0 0.0
2017-Feb-14 06:30N 59°42' E 028°21'0 0.0
2017-Feb-14 05:30N 59°42' E 028°21'0 0.0
2017-Feb-14 02:18N 59°42' E 028°21'0 0.0
2017-Feb-14 01:33N 59°42' E 028°21'0 0.0
2017-Feb-13 21:32N 59°42' E 028°21'0 0.0
2017-Feb-13 19:27N 59°42' E 028°21'0 0.0
2017-Feb-13 18:24N 59°42' E 028°21'0 0.0
2017-Feb-13 16:30N 59°42' E 028°21'0 0.3
2017-Feb-13 15:33N 59°42' E 028°22'0 0.0
2017-Feb-13 14:33N 59°42' E 028°22'0 0.0
2017-Feb-13 13:33N 59°42' E 028°22'0 0.0
2017-Feb-13 12:33N 59°42' E 028°22'0 0.0
2017-Feb-13 11:33N 59°42' E 028°22'0 0.0
2017-Feb-13 10:33N 59°42' E 028°22'0 0.0
2017-Feb-13 09:33N 59°42' E 028°22'0 0.0
2017-Feb-13 08:33N 59°42' E 028°22'0 0.0
2017-Feb-13 07:33N 59°42' E 028°22'0 0.0
2017-Feb-13 06:33N 59°42' E 028°22'1 1.0
2017-Feb-13 05:33N 59°43' E 028°23'3 3.4
2017-Feb-13 04:33N 59°46' E 028°24'0 0.3
2017-Feb-13 03:33N 59°46' E 028°25'0 0.0
2017-Feb-13 02:34N 59°46' E 028°25'0 0.0
2017-Feb-13 01:33N 59°46' E 028°25'0 0.0
2017-Feb-13 00:33N 59°46' E 028°25'0 0.0
2017-Feb-12 23:32N 59°46' E 028°25'0 0.0
2017-Feb-12 22:33N 59°46' E 028°25'0 0.0
2017-Feb-12 21:33N 59°46' E 028°25'0 0.0
2017-Feb-12 20:33N 59°46' E 028°25'0 0.0
2017-Feb-12 19:33N 59°46' E 028°25'0 0.3
2017-Feb-12 18:33N 59°46' E 028°25'4 3.7
2017-Feb-12 17:33N 59°43' E 028°22'0 0.0
2017-Feb-12 16:33N 59°43' E 028°22'0 0.0
2017-Feb-12 15:33N 59°43' E 028°22'0 0.0
2017-Feb-12 14:33N 59°43' E 028°22'0 0.0
2017-Feb-12 13:33N 59°43' E 028°22'0 0.1
2017-Feb-12 12:34N 59°43' E 028°22'  

Dump ship's entire track history